Time;durP1;ratioP1;P1;durP2;ratioP2;P2;SDS_P1;SDS_P2;PMS_P1;PMS_P2;Temp;Humidity;BMP_temperature;BMP_pressure;BME280_temperature;BME280_humidity;BME280_pressure;Samples;Min_cycle;Max_cycle;Signal;HPM_P1;HPM_P2
2024/03/14 00:01:00;;;;;;;6.37;4.23;;;;;;;5.30;100.00;100208.96;1393937;88;21213;-74
2024/03/14 00:03:28;;;;;;;6.03;4.60;;;;;;;5.32;100.00;100210.14;1399538;88;21406;-74
2024/03/14 00:05:55;;;;;;;8.77;5.87;;;;;;;5.25;100.00;100210.27;1393827;88;21324;-75
2024/03/14 00:08:23;;;;;;;7.63;5.30;;;;;;;5.24;100.00;100208.61;1371119;90;21502;-74
2024/03/14 00:10:51;;;;;;;7.93;4.97;;;;;;;5.22;100.00;100206.09;1393891;88;21332;-73
2024/03/14 00:13:18;;;;;;;5.57;3.87;;;;;;;5.22;100.00;100211.34;1376285;90;21303;-73
2024/03/14 00:15:46;;;;;;;6.97;5.40;;;;;;;5.18;100.00;100204.19;1394238;88;22123;-74
2024/03/14 00:18:14;;;;;;;8.37;5.43;;;;;;;5.20;100.00;100206.20;1370934;90;21266;-75
2024/03/14 00:20:42;;;;;;;6.83;5.37;;;;;;;5.12;100.00;100204.67;1379585;90;21206;-75
2024/03/14 00:23:10;;;;;;;7.00;4.93;;;;;;;5.13;100.00;100206.33;1376239;90;21442;-75
2024/03/14 00:25:40;;;;;;;6.87;4.63;;;;;;;5.12;100.00;100202.50;1352795;91;22176;-75
2024/03/14 00:28:09;;;;;;;6.20;5.23;;;;;;;5.06;100.00;100200.34;1505314;88;22469;-75
2024/03/14 00:30:36;;;;;;;8.63;5.80;;;;;;;5.06;100.00;100198.55;1468155;88;21582;-74
2024/03/14 00:33:04;;;;;;;7.20;5.53;;;;;;;5.04;100.00;100205.73;1399049;88;21206;-75
2024/03/14 00:35:31;;;;;;;7.60;5.30;;;;;;;5.07;100.00;100198.10;1553619;88;21199;-74
2024/03/14 00:37:59;;;;;;;8.00;5.73;;;;;;;5.05;100.00;100202.14;1394072;88;22227;-74
2024/03/14 00:40:28;;;;;;;7.90;5.20;;;;;;;5.02;100.00;100202.86;1393677;88;21258;-75
2024/03/14 00:42:56;;;;;;;8.27;6.07;;;;;;;4.95;100.00;100205.95;1369097;90;22324;-74
2024/03/14 00:45:24;;;;;;;10.07;4.60;;;;;;;4.94;100.00;100199.50;1393199;88;21280;-74
2024/03/14 00:47:51;;;;;;;6.90;4.83;;;;;;;4.86;100.00;100202.73;1500246;90;21310;-75
2024/03/14 00:50:19;;;;;;;8.03;5.83;;;;;;;4.88;100.00;100203.42;1393835;88;21206;-75
2024/03/14 00:52:47;;;;;;;8.07;5.73;;;;;;;4.87;100.00;100207.01;1398963;88;21287;-74
2024/03/14 00:55:14;;;;;;;7.37;5.00;;;;;;;4.89;100.00;100210.36;1380477;90;21287;-73
2024/03/14 00:57:42;;;;;;;7.23;6.00;;;;;;;4.88;100.00;100223.09;1371457;90;21279;-74
2024/03/14 01:00:13;;;;;;;7.90;5.00;;;;;;;4.82;100.00;100214.86;1352765;91;21429;-74
2024/03/14 01:02:46;;;;;;;;;;;;;;;4.88;100.00;100211.29;1397788;88;21272;-74
2024/03/14 01:05:11;;;;;;;6.10;4.37;;;;;;;4.89;100.00;100207.73;1392979;90;20292;-73
2024/03/14 01:07:38;;;;;;;7.30;4.80;;;;;;;4.91;100.00;100202.36;1391848;88;21213;-74
2024/03/14 01:10:06;;;;;;;7.60;5.27;;;;;;;4.86;100.00;100205.80;1371473;90;21429;-73
2024/03/14 01:12:35;;;;;;;4.97;4.03;;;;;;;4.94;100.00;100212.61;1352855;91;21259;-75
2024/03/14 01:15:06;;;;;;;7.90;5.30;;;;;;;4.89;100.00;100211.67;1392229;88;21434;-74
2024/03/14 01:17:33;;;;;;;6.30;4.63;;;;;;;4.96;100.00;100207.62;1552397;88;21458;-74
2024/03/14 01:20:02;;;;;;;6.37;4.90;;;;;;;5.02;100.00;100212.04;1370782;90;21281;-74
2024/03/14 01:22:29;;;;;;;7.53;6.10;;;;;;;5.01;100.00;100211.21;1369860;90;21421;-73
2024/03/14 01:24:57;;;;;;;7.33;4.97;;;;;;;5.08;100.00;100207.63;1352764;91;22199;-73
2024/03/14 01:27:26;;;;;;;6.47;4.57;;;;;;;5.05;100.00;100197.38;1394161;88;21317;-73
2024/03/14 01:29:53;;;;;;;7.40;5.67;;;;;;;4.98;100.00;100207.03;1369429;90;22419;-74
2024/03/14 01:32:21;;;;;;;6.37;4.43;;;;;;;5.02;100.00;100203.69;1393910;88;21346;-73
2024/03/14 01:34:48;;;;;;;5.97;4.50;;;;;;;5.01;100.00;100197.27;1371204;90;21429;-73
2024/03/14 01:37:15;;;;;;;6.37;5.07;;;;;;;5.06;100.00;100202.97;1393990;88;21273;-73
2024/03/14 01:39:43;;;;;;;7.17;5.37;;;;;;;5.05;100.00;100200.00;1371264;90;21288;-74
2024/03/14 01:42:13;;;;;;;8.60;6.00;;;;;;;5.10;100.00;100189.52;1394185;88;21258;-73
2024/03/14 01:45:04;;;;;;;6.37;4.63;;;;;;;5.09;100.00;100187.85;1400176;88;21309;-75
2024/03/14 01:47:32;;;;;;;7.90;5.70;;;;;;;5.05;100.00;100189.51;1547001;88;21717;-74
2024/03/14 01:50:01;;;;;;;7.93;5.40;;;;;;;5.05;100.00;100182.95;1371374;90;21347;-75
2024/03/14 01:52:28;;;;;;;10.37;6.43;;;;;;;5.02;100.00;100172.70;1418340;88;21851;-75
2024/03/14 01:54:56;;;;;;;6.50;5.00;;;;;;;5.09;100.00;100176.50;1468121;88;21553;-74
2024/03/14 01:57:25;;;;;;;8.50;6.57;;;;;;;5.04;100.00;100170.80;1466363;88;21412;-74
2024/03/14 01:59:53;;;;;;;9.27;6.00;;;;;;;5.06;100.00;100167.56;1466245;88;21537;-74
2024/03/14 02:02:23;;;;;;;9.23;5.80;;;;;;;5.05;100.00;100177.70;1450750;88;21383;-75
2024/03/14 02:05:07;;;;;;;6.97;5.47;;;;;;;5.06;100.00;100186.75;1463925;88;21382;-72
2024/03/14 02:07:35;;;;;;;8.63;6.22;;;;;;;5.07;100.00;100188.92;1471195;88;22885;-72
2024/03/14 02:10:04;;;;;;;9.10;6.17;;;;;;;5.10;100.00;100192.14;1453307;88;21427;-73
2024/03/14 02:12:31;;;;;;;9.50;6.20;;;;;;;5.11;100.00;100190.34;1462357;88;21375;-73
2024/03/14 02:15:01;;;;;;;8.93;6.10;;;;;;;5.05;100.00;100202.63;1461505;88;21382;-73
2024/03/14 02:17:28;;;;;;;7.40;5.43;;;;;;;5.08;100.00;100199.28;1467461;88;21419;-72
2024/03/14 02:19:56;;;;;;;8.70;5.23;;;;;;;5.15;100.00;100206.19;1450607;88;21382;-74
2024/03/14 02:22:23;;;;;;;10.23;6.73;;;;;;;5.07;100.00;100202.04;1469083;88;21834;-75
2024/03/14 02:24:51;;;;;;;9.57;6.63;;;;;;;5.02;100.00;100209.42;1464109;88;23030;-73
2024/03/14 02:27:20;;;;;;;12.97;8.00;;;;;;;4.98;100.00;100204.41;1442810;90;21944;-73
2024/03/14 02:29:47;;;;;;;10.03;6.57;;;;;;;4.95;100.00;100195.95;1418295;91;22550;-73
2024/03/14 02:32:14;;;;;;;9.40;6.70;;;;;;;4.96;100.00;100194.98;1469856;88;21382;-73
2024/03/14 02:34:42;;;;;;;14.13;6.80;;;;;;;4.90;100.00;100196.28;1468940;88;22976;-74
2024/03/14 02:37:11;;;;;;;8.40;6.40;;;;;;;4.78;100.00;100196.39;1469167;88;21354;-74
2024/03/14 02:39:39;;;;;;;10.50;6.60;;;;;;;4.81;100.00;100198.30;1470244;88;21449;-73
2024/03/14 02:42:10;;;;;;;9.00;6.93;;;;;;;4.79;100.00;100194.12;1370232;90;22309;-73
2024/03/14 02:44:36;;;;;;;9.67;7.10;;;;;;;4.72;100.00;100195.07;1374328;90;21469;-74
2024/03/14 02:47:04;;;;;;;8.67;6.50;;;;;;;4.73;100.00;100199.35;1547626;88;21457;-74
2024/03/14 02:49:31;;;;;;;10.70;7.53;;;;;;;4.70;100.00;100206.14;1408892;90;21450;-74
2024/03/14 02:51:59;;;;;;;10.40;7.57;;;;;;;4.68;100.00;100205.41;1371372;89;21222;-73
2024/03/14 02:54:30;;;;;;;10.27;7.37;;;;;;;4.61;100.00;100210.77;1393027;88;22205;-73
2024/03/14 02:56:56;;;;;;;10.97;7.50;;;;;;;4.63;100.00;100212.33;1545401;88;21317;-74
2024/03/14 02:59:24;;;;;;;11.33;7.47;;;;;;;4.62;100.00;100209.80;1370912;90;21421;-73
2024/03/14 03:01:53;;;;;;;9.80;7.00;;;;;;;4.58;100.00;100213.14;1353221;91;21340;-73
2024/03/14 03:04:20;;;;;;;10.27;7.57;;;;;;;4.53;100.00;100214.78;1391794;88;21404;-73
2024/03/14 03:06:58;;;;;;;11.60;7.47;;;;;;;4.56;100.00;100212.89;1371151;90;21422;-74
2024/03/14 03:09:25;;;;;;;14.30;8.17;;;;;;;4.57;100.00;100214.55;1404067;92;21635;-74
2024/03/14 03:11:57;;;;;;;10.27;7.20;;;;;;;4.58;100.00;100217.55;1448971;88;21390;-73
2024/03/14 03:14:22;;;;;;;11.83;7.73;;;;;;;4.48;100.00;100222.14;1467503;88;21406;-74
2024/03/14 03:16:49;;;;;;;10.07;7.23;;;;;;;4.56;100.00;100219.44;1470040;88;21368;-74
2024/03/14 03:19:17;;;;;;;9.37;7.23;;;;;;;4.61;100.00;100219.94;1441656;90;21354;-74
2024/03/14 03:21:44;;;;;;;10.80;7.87;;;;;;;4.63;100.00;100219.33;1469418;88;21381;-74
2024/03/14 03:24:12;;;;;;;12.23;8.13;;;;;;;4.62;100.00;100219.81;1443802;90;21494;-74
2024/03/14 03:26:41;;;;;;;11.03;7.57;;;;;;;4.56;100.00;100222.06;1459150;88;21390;-73
2024/03/14 03:29:08;;;;;;;11.83;8.23;;;;;;;4.56;100.00;100218.12;1468608;88;21375;-73
2024/03/14 03:31:38;;;;;;;10.80;7.60;;;;;;;4.59;100.00;100211.34;1443896;90;21435;-73
2024/03/14 03:34:07;;;;;;;10.10;7.10;;;;;;;4.57;100.00;100211.92;1443404;90;21449;-74
2024/03/14 03:36:34;;;;;;;11.10;7.80;;;;;;;4.60;100.00;100216.45;1440725;90;21435;-73
2024/03/14 03:39:03;;;;;;;12.63;8.40;;;;;;;4.61;100.00;100216.00;1468684;88;21527;-72
2024/03/14 03:41:31;;;;;;;11.43;8.27;;;;;;;4.55;100.00;100216.47;1467227;88;21812;-73
2024/03/14 03:43:59;;;;;;;10.53;7.07;;;;;;;4.62;100.00;100217.67;1474148;88;21390;-73
2024/03/14 03:46:26;;;;;;;11.67;8.27;;;;;;;4.63;100.00;100220.19;1440754;90;21377;-73
2024/03/14 03:48:53;;;;;;;12.10;7.23;;;;;;;4.63;100.00;100224.57;1468396;88;22425;-73
2024/03/14 03:51:21;;;;;;;9.77;7.63;;;;;;;4.68;100.00;100227.69;1446896;90;21384;-73
2024/03/14 03:53:48;;;;;;;11.23;8.63;;;;;;;4.71;100.00;100228.77;1423253;91;22404;-72
2024/03/14 03:56:16;;;;;;;10.47;7.17;;;;;;;4.68;100.00;100226.38;1469879;88;21472;-74
2024/03/14 03:58:43;;;;;;;9.90;7.17;;;;;;;4.58;100.00;100223.63;1444627;90;21553;-73
2024/03/14 04:01:12;;;;;;;10.43;6.90;;;;;;;4.61;100.00;100223.39;1421859;91;21388;-72
2024/03/14 04:03:42;;;;;;;12.20;7.20;;;;;;;4.68;100.00;100226.38;1469098;88;22380;-73
2024/03/14 04:06:19;;;;;;;13.48;7.75;;;;;;;4.64;100.00;100235.44;1446900;90;21479;-73
2024/03/14 04:08:47;;;;;;;9.60;7.03;;;;;;;4.65;100.00;100234.47;1466502;88;21412;-73
2024/03/14 04:11:15;;;;;;;11.70;8.35;;;;;;;4.67;100.00;100233.89;1429067;90;21470;-73
2024/03/14 04:13:43;;;;;;;10.00;7.37;;;;;;;4.67;100.00;100235.20;1471530;88;21530;-72
2024/03/14 04:16:12;;;;;;;10.50;6.90;;;;;;;4.67;100.00;100242.59;1439585;90;21376;-72
2024/03/14 04:18:39;;;;;;;10.80;7.37;;;;;;;4.68;100.00;100243.42;1445176;90;21518;-73
2024/03/14 04:21:07;;;;;;;13.73;7.93;;;;;;;4.69;100.00;100239.84;1425662;91;21390;-73
2024/03/14 04:23:35;;;;;;;9.87;7.37;;;;;;;4.67;100.00;100251.77;1470750;88;21375;-73
2024/03/14 04:26:03;;;;;;;12.27;8.00;;;;;;;4.73;100.00;100249.16;1471443;88;22380;-73
2024/03/14 04:28:33;;;;;;;11.30;8.43;;;;;;;4.70;100.00;100250.23;1468878;88;22433;-73
2024/03/14 04:30:59;;;;;;;11.43;7.80;;;;;;;4.75;100.00;100257.77;1545610;88;22249;-73
2024/03/14 04:33:27;;;;;;;11.37;8.77;;;;;;;4.76;100.00;100262.05;1393878;88;22160;-73
2024/03/14 04:35:56;;;;;;;9.57;7.00;;;;;;;4.81;100.00;100262.55;1393820;88;21213;-73
2024/03/14 04:38:23;;;;;;;10.50;7.30;;;;;;;4.75;100.00;100264.31;1545700;88;21354;-73
2024/03/14 04:40:51;;;;;;;9.70;7.37;;;;;;;4.83;100.00;100268.48;1371484;90;21251;-73
2024/03/14 04:43:18;;;;;;;11.20;8.70;;;;;;;4.78;100.00;100269.81;1393679;88;21258;-73
2024/03/14 04:45:46;;;;;;;14.27;7.50;;;;;;;4.78;100.00;100271.95;1370954;90;22146;-73
2024/03/14 04:48:13;;;;;;;10.53;7.57;;;;;;;4.78;100.00;100271.13;1448719;88;21310;-73
2024/03/14 04:50:43;;;;;;;11.93;8.40;;;;;;;4.83;100.00;100275.04;1370944;90;22036;-74
2024/03/14 04:53:10;;;;;;;10.77;7.97;;;;;;;4.80;100.00;100268.72;1368997;90;21400;-73
2024/03/14 04:55:39;;;;;;;10.40;7.53;;;;;;;4.71;100.00;100274.17;1353017;91;21266;-73
2024/03/14 04:58:06;;;;;;;11.73;8.87;;;;;;;4.78;100.00;100277.20;1392348;88;21243;-73
2024/03/14 05:00:33;;;;;;;11.80;9.07;;;;;;;4.76;100.00;100276.46;1377275;90;21465;-73
2024/03/14 05:03:01;;;;;;;12.00;7.70;;;;;;;4.77;100.00;100276.81;1405413;91;21458;-78
2024/03/14 05:05:28;;;;;;;12.97;8.40;;;;;;;4.77;100.00;100274.19;1464149;88;21383;-77
2024/03/14 05:07:57;;;;;;;9.83;7.07;;;;;;;4.78;100.00;100274.57;1452733;88;21376;-77
2024/03/14 05:10:24;;;;;;;13.50;7.60;;;;;;;4.80;100.00;100275.27;1438210;90;21561;-77
2024/03/14 05:12:52;;;;;;;14.83;8.90;;;;;;;4.83;100.00;100279.45;1445212;89;21376;-77
2024/03/14 05:15:19;;;;;;;12.40;8.90;;;;;;;4.81;100.00;100280.90;1469803;88;21519;-76
2024/03/14 05:17:47;;;;;;;12.97;8.03;;;;;;;4.88;100.00;100275.54;1468444;88;22410;-76
2024/03/14 05:20:16;;;;;;;11.17;8.20;;;;;;;4.90;100.00;100285.45;1444488;90;21508;-77
2024/03/14 05:22:44;;;;;;;12.20;8.63;;;;;;;4.90;100.00;100277.58;1456676;88;21390;-76
2024/03/14 05:25:11;;;;;;;12.53;9.00;;;;;;;4.95;100.00;100283.33;1474175;88;21317;-76
2024/03/14 05:27:38;;;;;;;11.10;7.60;;;;;;;5.00;100.00;100280.82;1467740;88;21280;-75
2024/03/14 05:30:07;;;;;;;12.63;8.33;;;;;;;5.06;100.00;100282.98;1442685;90;21391;-76
2024/03/14 05:32:34;;;;;;;11.97;8.77;;;;;;;5.13;100.00;100285.52;1351812;91;21311;-75
2024/03/14 05:35:02;;;;;;;11.70;8.13;;;;;;;5.16;100.00;100287.91;1379901;89;21420;-76
2024/03/14 05:37:30;;;;;;;10.67;7.70;;;;;;;5.16;100.00;100282.17;1393070;88;21205;-76
2024/03/14 05:39:57;;;;;;;12.30;8.00;;;;;;;5.21;100.00;100281.84;1371626;90;21266;-74
2024/03/14 05:42:25;;;;;;;14.23;8.43;;;;;;;5.33;100.00;100276.12;1352497;91;22152;-76
2024/03/14 05:44:55;;;;;;;11.67;7.80;;;;;;;5.33;100.00;100278.27;1394167;88;22086;-76
2024/03/14 05:47:21;;;;;;;11.77;8.43;;;;;;;5.42;100.00;100278.88;1392038;88;22160;-76
2024/03/14 05:49:51;;;;;;;11.20;7.93;;;;;;;5.61;100.00;100282.69;1397544;90;21503;-76
2024/03/14 05:52:18;;;;;;;11.43;8.40;;;;;;;5.75;100.00;100286.38;1399870;88;21287;-77
2024/03/14 05:54:46;;;;;;;10.30;7.13;;;;;;;5.77;100.00;100287.11;1469414;88;21486;-77
2024/03/14 05:57:15;;;;;;;9.47;7.13;;;;;;;5.89;100.00;100290.56;1468005;88;21353;-76
2024/03/14 05:59:42;;;;;;;12.40;8.40;;;;;;;6.02;100.00;100295.73;1468431;88;22594;-76
2024/03/14 06:02:10;;;;;;;14.47;8.77;;;;;;;6.06;100.00;100294.03;1441966;90;21368;-76
2024/03/14 06:04:37;;;;;;;10.63;7.20;;;;;;;6.08;100.00;100293.92;1452540;88;21591;-76
2024/03/14 06:07:04;;;;;;;9.33;6.80;;;;;;;6.20;100.00;100287.69;1445374;90;21443;-77
2024/03/14 06:09:39;;;;;;;9.57;6.90;;;;;;;6.20;100.00;100294.25;1422387;92;22624;-75
2024/03/14 06:12:02;;;;;;;10.00;6.97;;;;;;;6.26;100.00;100295.07;1466810;88;21470;-77
2024/03/14 06:14:29;;;;;;;10.63;7.23;;;;;;;6.35;100.00;100299.23;1444630;90;21489;-77
2024/03/14 06:16:57;;;;;;;11.00;7.17;;;;;;;6.44;100.00;100299.31;1440632;90;21450;-76
2024/03/14 06:19:24;;;;;;;11.03;7.07;;;;;;;6.64;100.00;100297.70;1420322;91;21553;-77
2024/03/14 06:21:51;;;;;;;8.83;5.53;;;;;;;6.76;100.00;100300.66;1469574;88;21427;-77
2024/03/14 06:24:19;;;;;;;8.63;6.70;;;;;;;6.90;100.00;100303.93;1442536;90;21570;-78
2024/03/14 06:26:46;;;;;;;10.03;6.87;;;;;;;6.89;100.00;100307.05;1423018;90;21391;-77
2024/03/14 06:29:14;;;;;;;9.17;6.50;;;;;;;6.75;100.00;100310.81;1392615;88;21397;-78
2024/03/14 06:31:42;;;;;;;9.00;6.83;;;;;;;6.81;100.00;100308.16;1393977;88;21250;-78
2024/03/14 06:34:09;;;;;;;9.60;6.83;;;;;;;6.60;100.00;100313.88;1371850;90;21539;-77
2024/03/14 06:36:36;;;;;;;8.87;6.83;;;;;;;6.50;100.00;100320.34;1394076;88;21213;-76
2024/03/14 06:39:07;;;;;;;11.17;7.03;;;;;;;6.40;100.00;100321.56;1394256;88;21391;-78
2024/03/14 06:41:35;;;;;;;8.98;6.22;;;;;;;6.45;100.00;100325.16;1368009;90;21339;-76
2024/03/14 06:44:02;;;;;;;11.30;7.23;;;;;;;6.31;100.00;100319.69;1353015;91;21289;-76
2024/03/14 06:46:29;;;;;;;11.30;6.67;;;;;;;6.35;100.00;100322.89;1399200;88;21391;-76
2024/03/14 06:48:57;;;;;;;11.47;6.30;;;;;;;6.32;100.00;100323.48;1465391;88;21382;-76
2024/03/14 06:51:24;;;;;;;10.30;6.00;;;;;;;6.51;100.00;100326.80;1441832;90;21510;-75
2024/03/14 06:53:52;;;;;;;7.30;5.43;;;;;;;6.71;100.00;100332.25;1418525;91;21360;-76
2024/03/14 06:56:19;;;;;;;11.10;6.20;;;;;;;6.82;100.00;100332.66;1470629;88;21441;-76
2024/03/14 06:58:49;;;;;;;7.17;5.80;;;;;;;6.77;100.00;100336.52;1440561;90;22814;-77
2024/03/14 07:01:17;;;;;;;8.03;5.83;;;;;;;6.55;100.00;100341.36;1443696;90;21465;-77
2024/03/14 07:03:45;;;;;;;9.17;6.23;;;;;;;6.59;100.00;100342.42;1423254;91;22360;-76
2024/03/14 07:06:14;;;;;;;9.83;6.77;;;;;;;6.76;100.00;100349.33;1464607;88;21323;-76
2024/03/14 07:08:46;;;;;;;9.43;6.57;;;;;;;6.88;100.00;100345.34;1472114;88;22366;-77
2024/03/14 07:11:15;;;;;;;9.17;6.23;;;;;;;6.97;100.00;100341.95;1550923;88;21490;-77
2024/03/14 07:13:48;;;;;;;7.23;5.23;;;;;;;6.86;100.00;100353.34;1553609;88;21206;-76
2024/03/14 07:16:11;;;;;;;7.87;5.90;;;;;;;6.89;100.00;100353.09;1550933;88;21287;-77
2024/03/14 07:18:40;;;;;;;7.70;5.67;;;;;;;7.09;100.00;100355.40;1543038;88;22271;-77
2024/03/14 07:21:07;;;;;;;8.70;6.20;;;;;;;7.24;100.00;100365.13;1392802;88;21206;-78
2024/03/14 07:23:34;;;;;;;6.67;4.67;;;;;;;7.32;100.00;100359.23;1532252;88;21471;-77
2024/03/14 07:26:02;;;;;;;6.87;4.57;;;;;;;7.42;100.00;100361.44;1371106;90;21280;-77
2024/03/14 07:28:31;;;;;;;7.40;5.17;;;;;;;7.42;100.00;100365.39;1354335;92;21392;-77
2024/03/14 07:30:59;;;;;;;8.77;6.13;;;;;;;7.38;100.00;100358.72;1468099;88;21560;-77
2024/03/14 07:33:26;;;;;;;9.33;6.00;;;;;;;7.40;100.00;100357.63;1443521;90;21391;-77
2024/03/14 07:35:54;;;;;;;9.17;6.37;;;;;;;7.33;100.00;100353.00;1421290;92;22677;-76
2024/03/14 07:38:27;;;;;;;14.53;6.97;;;;;;;7.44;100.00;100355.57;1469244;88;21405;-76
2024/03/14 07:40:55;;;;;;;9.80;6.90;;;;;;;7.27;100.00;100358.30;1469954;88;21664;-77
2024/03/14 07:43:22;;;;;;;8.83;5.83;;;;;;;7.46;100.00;100354.48;1463953;88;22278;-77
2024/03/14 07:45:50;;;;;;;10.30;7.70;;;;;;;7.31;100.00;100357.55;1447710;90;21509;-76
2024/03/14 07:48:20;;;;;;;8.80;6.00;;;;;;;7.41;100.00;100364.55;1466993;88;21360;-76
2024/03/14 07:50:46;;;;;;;9.33;6.07;;;;;;;7.48;100.00;100358.31;1470640;88;21605;-75
2024/03/14 07:53:13;;;;;;;10.03;6.87;;;;;;;7.38;100.00;100374.52;1442059;89;21391;-78
2024/03/14 07:55:41;;;;;;;9.80;6.43;;;;;;;7.46;100.00;100373.41;1443303;90;22465;-77
2024/03/14 07:58:08;;;;;;;9.30;6.17;;;;;;;7.43;100.00;100369.22;1417680;92;21429;-76
2024/03/14 08:00:36;;;;;;;7.83;5.87;;;;;;;7.32;100.00;100371.09;1468397;88;22418;-77
2024/03/14 08:03:04;;;;;;;9.80;7.13;;;;;;;7.35;100.00;100366.88;1466249;88;21449;-76
2024/03/14 08:05:33;;;;;;;7.20;5.20;;;;;;;7.27;100.00;100368.83;1467086;88;21330;-76
2024/03/14 08:08:01;;;;;;;10.30;6.70;;;;;;;7.37;100.00;100373.69;1468496;88;21479;-76
2024/03/14 08:10:28;;;;;;;8.73;6.23;;;;;;;7.35;100.00;100378.73;1437159;90;22285;-79
2024/03/14 08:12:57;;;;;;;10.93;6.93;;;;;;;7.37;100.00;100378.12;1466587;88;21584;-75
2024/03/14 08:15:35;;;;;;;11.47;6.57;;;;;;;7.37;100.00;100374.17;1473675;88;22336;-77
2024/03/14 08:18:00;;;;;;;10.13;6.97;;;;;;;7.38;100.00;100379.78;1466973;88;21426;-76
2024/03/14 08:20:28;;;;;;;10.07;6.67;;;;;;;7.46;100.00;100379.98;1437128;90;21354;-77
2024/03/14 08:22:56;;;;;;;9.23;6.33;;;;;;;7.51;100.00;100377.80;1457569;88;22306;-77
2024/03/14 08:25:24;;;;;;;7.03;5.10;;;;;;;7.41;100.00;100384.30;1438545;90;21503;-77
2024/03/14 08:27:53;;;;;;;9.73;6.37;;;;;;;7.41;100.00;100386.11;1421954;91;22345;-77
2024/03/14 08:30:23;;;;;;;7.93;5.80;;;;;;;7.33;100.00;100389.86;1468460;88;21592;-77
2024/03/14 08:32:50;;;;;;;10.03;6.57;;;;;;;7.45;100.00;100391.45;1464632;88;21442;-77
2024/03/14 08:35:17;;;;;;;7.97;5.80;;;;;;;7.68;100.00;100385.57;1467342;88;21382;-76
2024/03/14 08:37:45;;;;;;;9.33;6.90;;;;;;;7.99;100.00;100389.06;1452301;88;21390;-76
2024/03/14 08:40:13;;;;;;;7.40;5.63;;;;;;;8.17;100.00;100385.35;1443314;90;22396;-76
2024/03/14 08:42:41;;;;;;;7.30;5.57;;;;;;;8.38;100.00;100385.27;1445381;89;21465;-76
2024/03/14 08:45:10;;;;;;;7.40;5.13;;;;;;;8.59;100.00;100387.36;1419942;91;21647;-76
2024/03/14 08:47:38;;;;;;;5.63;4.03;;;;;;;8.69;100.00;100396.63;1465386;88;22300;-77
2024/03/14 08:50:09;;;;;;;6.00;4.27;;;;;;;8.99;100.00;100389.08;1467177;88;21418;-77
2024/03/14 08:52:41;;;;;;;6.10;4.33;;;;;;;9.40;100.00;100395.04;1443603;90;21634;-77
2024/03/14 08:55:25;;;;;;;6.50;5.20;;;;;;;9.57;100.00;100388.20;1425687;91;21318;-77
2024/03/14 08:57:53;;;;;;;6.17;4.73;;;;;;;9.17;100.00;100384.42;1471870;88;21301;-76
2024/03/14 09:00:21;;;;;;;6.87;5.60;;;;;;;9.30;100.00;100384.16;1448209;90;21353;-77
2024/03/14 09:02:49;;;;;;;5.10;3.93;;;;;;;9.60;100.00;100385.27;1421784;91;22574;-77
2024/03/14 09:05:17;;;;;;;5.00;3.47;;;;;;;9.59;100.00;100386.27;1465200;88;21382;-76
2024/03/14 09:07:45;;;;;;;4.73;3.50;;;;;;;9.69;100.00;100391.52;1446703;90;22419;-77
2024/03/14 09:10:16;;;;;;;4.10;3.23;;;;;;;9.70;100.00;100386.59;1472512;88;21441;-78
2024/03/14 09:12:45;;;;;;;5.28;4.17;;;;;;;9.63;100.00;100386.80;1469829;88;21389;-76
2024/03/14 09:15:13;;;;;;;5.43;4.03;;;;;;;9.35;100.00;100389.37;1446683;90;21443;-76
2024/03/14 09:17:41;;;;;;;6.87;3.90;;;;;;;9.37;100.00;100384.75;1473759;88;21427;-77
2024/03/14 09:20:09;;;;;;;3.80;3.37;;;;;;;9.76;100.00;100383.37;1444552;90;21383;-76
2024/03/14 09:22:37;;;;;;;7.77;4.80;;;;;;;9.35;100.00;100381.45;1444508;89;21332;-77
2024/03/14 09:25:06;;;;;;;5.20;2.97;;;;;;;9.49;100.00;100382.33;1466864;88;21523;-77
2024/03/14 09:27:33;;;;;;;4.47;3.13;;;;;;;9.59;100.00;100388.08;1466506;88;21973;-77
2024/03/14 09:30:03;;;;;;;3.10;2.60;;;;;;;9.97;100.00;100392.91;1471267;88;21426;-77
2024/03/14 09:32:30;;;;;;;4.30;2.77;;;;;;;10.56;100.00;100386.41;1464236;88;21456;-77
2024/03/14 09:34:58;;;;;;;3.73;2.80;;;;;;;11.06;100.00;100387.23;1463496;88;21508;-77
2024/03/14 09:37:25;;;;;;;3.63;2.50;;;;;;;11.22;100.00;100386.06;1462901;88;22345;-76
2024/03/14 09:39:54;;;;;;;4.13;3.00;;;;;;;11.18;100.00;100387.34;1427208;90;21383;-77
2024/03/14 09:42:22;;;;;;;3.87;2.63;;;;;;;10.92;100.00;100390.41;1444106;90;21450;-77
2024/03/14 09:44:49;;;;;;;3.17;2.70;;;;;;;10.50;100.00;100384.33;1419144;91;21339;-76
2024/03/14 09:47:27;;;;;;;4.47;3.40;;;;;;;10.27;100.00;100388.72;1470305;88;22613;-77
2024/03/14 09:49:56;;;;;;;5.27;3.50;;;;;;;10.24;100.00;100380.19;1461995;88;21441;-77
2024/03/14 09:52:24;;;;;;;5.53;3.70;;;;;;;10.12;100.00;100387.48;1464391;88;22528;-77
2024/03/14 09:54:53;;;;;;;3.63;2.93;;;;;;;10.50;100.00;100380.36;1449413;90;21465;-76
2024/03/14 09:57:20;;;;;;;5.17;2.40;;;;;;;10.54;100.00;100381.25;1448459;90;21548;-76
2024/03/14 09:59:49;;;;;;;3.03;2.27;;;;;;;10.73;100.00;100380.31;1468761;88;21613;-77
2024/03/14 10:02:18;;;;;;;2.27;1.80;;;;;;;10.93;100.00;100380.98;1466861;88;21582;-76
2024/03/14 10:04:46;;;;;;;4.13;2.70;;;;;;;10.84;100.00;100382.72;1466033;88;21390;-76
2024/03/14 10:07:14;;;;;;;4.30;3.10;;;;;;;10.97;100.00;100379.71;1468547;88;21448;-78
2024/03/14 10:09:41;;;;;;;5.30;2.00;;;;;;;11.04;100.00;100383.90;1467958;88;21360;-77
2024/03/14 10:12:10;;;;;;;2.20;1.80;;;;;;;11.11;100.00;100380.17;1442428;90;22427;-76
2024/03/14 10:14:37;;;;;;;2.67;2.20;;;;;;;11.13;100.00;100375.03;1465391;88;21309;-77
2024/03/14 10:17:11;;;;;;;3.43;2.43;;;;;;;11.43;100.00;100375.13;1442998;89;21361;-77
2024/03/14 10:19:36;;;;;;;2.77;2.03;;;;;;;11.42;100.00;100376.59;1422625;91;21487;-76
2024/03/14 10:22:05;;;;;;;2.83;2.40;;;;;;;11.38;100.00;100374.75;1466444;88;21440;-76
2024/03/14 10:24:34;;;;;;;2.93;2.23;;;;;;;11.24;100.00;100372.66;1378393;90;21317;-76
2024/03/14 10:27:05;;;;;;;3.03;1.70;;;;;;;11.55;100.00;100377.03;1370333;90;21458;-75
2024/03/14 10:29:33;;;;;;;2.63;2.30;;;;;;;11.61;100.00;100372.43;1417439;90;21501;-76
2024/03/14 10:32:01;;;;;;;3.42;2.20;;;;;;;11.82;100.00;100369.41;1471522;88;21456;-76
2024/03/14 10:34:28;;;;;;;5.33;2.90;;;;;;;11.91;100.00;100365.86;1443902;90;21993;-76
2024/03/14 10:36:58;;;;;;;7.57;3.70;;;;;;;11.92;100.00;100374.15;1428697;90;22434;-75
2024/03/14 10:39:29;;;;;;;4.57;2.70;;;;;;;12.01;100.00;100379.00;1469100;88;22262;-76
2024/03/14 10:41:56;;;;;;;2.37;1.77;;;;;;;12.12;100.00;100368.11;1550995;88;21517;-76
2024/03/14 10:44:24;;;;;;;2.23;1.80;;;;;;;12.16;74.28;100368.12;1395763;88;21244;-78
2024/03/14 10:46:52;;;;;;;2.37;1.80;;;;;;;12.26;65.12;100369.84;1389832;88;22235;-76
2024/03/14 10:49:24;;;;;;;2.43;2.00;;;;;;;12.29;64.99;100362.88;1393607;88;21279;-78
2024/03/14 10:51:54;;;;;;;2.43;1.97;;;;;;;11.89;65.06;100368.33;1431273;90;21487;-77
2024/03/14 10:54:26;;;;;;;2.80;1.70;;;;;;;11.67;64.99;100367.00;1430216;91;21457;-76
2024/03/14 10:56:52;;;;;;;2.52;1.85;;;;;;;11.87;60.75;100363.67;1471109;88;22205;-77
2024/03/14 10:59:24;;;;;;;2.47;2.00;;;;;;;11.65;60.58;100365.84;1446301;90;21341;-78
2024/03/14 11:01:55;;;;;;;2.80;2.30;;;;;;;11.93;61.97;100370.50;1421990;91;21546;-79
2024/03/14 11:04:26;;;;;;;2.90;1.73;;;;;;;11.95;61.33;100370.34;1466870;88;21457;-77
2024/03/14 11:06:57;;;;;;;2.83;2.10;;;;;;;11.90;60.95;100368.16;1471641;88;21397;-78
2024/03/14 11:09:29;;;;;;;2.40;2.10;;;;;;;11.65;59.91;100375.13;1474043;88;22505;-76
2024/03/14 11:11:58;;;;;;;1.70;1.60;;;;;;;11.94;61.76;100370.02;1442622;90;21405;-78
2024/03/14 11:14:43;;;;;;;1.83;1.60;;;;;;;12.22;61.39;100360.02;1441332;89;21539;-79
2024/03/14 11:17:14;;;;;;;2.07;1.87;;;;;;;12.33;59.56;100360.23;1446153;90;21472;-78
2024/03/14 11:19:46;;;;;;;2.40;2.00;;;;;;;12.33;59.34;100360.23;1464425;88;22527;-77
2024/03/14 11:22:17;;;;;;;1.67;1.57;;;;;;;12.30;59.65;100361.88;1471407;88;21331;-78
2024/03/14 11:24:48;;;;;;;1.53;1.43;;;;;;;12.61;57.78;100368.28;1437783;90;21332;-77
2024/03/14 11:27:19;;;;;;;1.87;1.53;;;;;;;13.07;58.10;100358.06;1433980;92;21369;-76